sensor_id;sensor_type;location;lat;lon;timestamp;P1;durP1;ratioP1;P2;durP2;ratioP2
55931;SDS011;41837;55.700;37.984;2023-07-08T00:00:42;41.05;;;28.02;;
55931;SDS011;41837;55.700;37.984;2023-07-08T00:03:11;35.30;;;25.48;;
55931;SDS011;41837;55.700;37.984;2023-07-08T00:05:37;35.95;;;24.80;;
55931;SDS011;41837;55.700;37.984;2023-07-08T00:08:04;32.35;;;23.88;;
55931;SDS011;41837;55.700;37.984;2023-07-08T00:10:30;34.83;;;24.65;;
55931;SDS011;41837;55.700;37.984;2023-07-08T00:12:57;34.42;;;24.13;;
55931;SDS011;41837;55.700;37.984;2023-07-08T00:15:25;33.58;;;23.15;;
55931;SDS011;41837;55.700;37.984;2023-07-08T00:17:56;36.75;;;24.40;;
55931;SDS011;41837;55.700;37.984;2023-07-08T00:20:32;35.08;;;24.73;;
55931;SDS011;41837;55.700;37.984;2023-07-08T00:23:02;36.65;;;24.98;;
55931;SDS011;41837;55.700;37.984;2023-07-08T00:25:29;38.38;;;24.98;;
55931;SDS011;41837;55.700;37.984;2023-07-08T00:27:57;39.58;;;25.05;;
55931;SDS011;41837;55.700;37.984;2023-07-08T00:30:24;39.17;;;24.20;;
55931;SDS011;41837;55.700;37.984;2023-07-08T00:32:53;33.38;;;24.13;;
55931;SDS011;41837;55.700;37.984;2023-07-08T00:37:54;34.33;;;24.05;;
55931;SDS011;41837;55.700;37.984;2023-07-08T00:40:31;39.35;;;25.02;;
55931;SDS011;41837;55.700;37.984;2023-07-08T00:42:59;34.53;;;24.95;;
55931;SDS011;41837;55.700;37.984;2023-07-08T00:48:15;40.90;;;26.38;;
55931;SDS011;41837;55.700;37.984;2023-07-08T00:50:43;37.55;;;25.42;;
55931;SDS011;41837;55.700;37.984;2023-07-08T00:55:48;40.50;;;25.50;;
55931;SDS011;41837;55.700;37.984;2023-07-08T00:58:16;41.88;;;26.20;;
55931;SDS011;41837;55.700;37.984;2023-07-08T01:00:45;38.13;;;25.42;;
55931;SDS011;41837;55.700;37.984;2023-07-08T01:03:12;42.97;;;25.30;;
55931;SDS011;41837;55.700;37.984;2023-07-08T01:05:38;36.35;;;24.13;;
55931;SDS011;41837;55.700;37.984;2023-07-08T01:08:05;40.75;;;24.75;;
55931;SDS011;41837;55.700;37.984;2023-07-08T01:10:33;37.25;;;24.83;;
55931;SDS011;41837;55.700;37.984;2023-07-08T01:13:08;38.17;;;25.50;;
55931;SDS011;41837;55.700;37.984;2023-07-08T01:15:39;36.20;;;25.50;;
55931;SDS011;41837;55.700;37.984;2023-07-08T01:18:09;38.58;;;24.10;;
55931;SDS011;41837;55.700;37.984;2023-07-08T01:20:38;34.00;;;23.45;;
55931;SDS011;41837;55.700;37.984;2023-07-08T01:23:05;34.38;;;23.83;;
55931;SDS011;41837;55.700;37.984;2023-07-08T01:25:31;37.92;;;23.88;;
55931;SDS011;41837;55.700;37.984;2023-07-08T01:27:58;31.00;;;22.08;;
55931;SDS011;41837;55.700;37.984;2023-07-08T01:30:26;35.55;;;22.55;;
55931;SDS011;41837;55.700;37.984;2023-07-08T01:32:55;25.67;;;20.42;;
55931;SDS011;41837;55.700;37.984;2023-07-08T01:35:25;26.35;;;20.52;;
55931;SDS011;41837;55.700;37.984;2023-07-08T01:37:53;30.50;;;20.38;;
55931;SDS011;41837;55.700;37.984;2023-07-08T01:43:00;29.67;;;21.88;;
55931;SDS011;41837;55.700;37.984;2023-07-08T01:45:28;26.75;;;20.10;;
55931;SDS011;41837;55.700;37.984;2023-07-08T01:48:02;25.73;;;19.00;;
55931;SDS011;41837;55.700;37.984;2023-07-08T01:50:32;26.13;;;18.70;;
55931;SDS011;41837;55.700;37.984;2023-07-08T01:53:04;22.17;;;16.92;;
55931;SDS011;41837;55.700;37.984;2023-07-08T01:55:35;23.95;;;17.35;;
55931;SDS011;41837;55.700;37.984;2023-07-08T01:58:01;20.95;;;15.45;;
55931;SDS011;41837;55.700;37.984;2023-07-08T02:00:27;24.15;;;16.20;;
55931;SDS011;41837;55.700;37.984;2023-07-08T02:02:53;21.70;;;15.18;;
55931;SDS011;41837;55.700;37.984;2023-07-08T02:05:20;25.17;;;16.02;;
55931;SDS011;41837;55.700;37.984;2023-07-08T02:07:48;21.13;;;16.92;;
55931;SDS011;41837;55.700;37.984;2023-07-08T02:10:15;20.70;;;15.32;;
55931;SDS011;41837;55.700;37.984;2023-07-08T02:12:41;18.85;;;15.30;;
55931;SDS011;41837;55.700;37.984;2023-07-08T02:15:11;20.48;;;14.70;;
55931;SDS011;41837;55.700;37.984;2023-07-08T02:17:38;19.90;;;13.90;;
55931;SDS011;41837;55.700;37.984;2023-07-08T02:20:04;16.77;;;13.18;;
55931;SDS011;41837;55.700;37.984;2023-07-08T02:22:31;21.45;;;12.80;;
55931;SDS011;41837;55.700;37.984;2023-07-08T02:25:00;16.25;;;12.75;;
55931;SDS011;41837;55.700;37.984;2023-07-08T02:27:29;17.65;;;12.43;;
55931;SDS011;41837;55.700;37.984;2023-07-08T02:29:59;16.08;;;12.40;;
55931;SDS011;41837;55.700;37.984;2023-07-08T02:32:26;23.48;;;12.60;;
55931;SDS011;41837;55.700;37.984;2023-07-08T02:34:52;16.88;;;11.45;;
55931;SDS011;41837;55.700;37.984;2023-07-08T02:37:19;17.25;;;11.07;;
55931;SDS011;41837;55.700;37.984;2023-07-08T02:39:45;17.10;;;11.57;;
55931;SDS011;41837;55.700;37.984;2023-07-08T02:42:12;15.93;;;11.20;;
55931;SDS011;41837;55.700;37.984;2023-07-08T02:44:38;16.20;;;11.80;;
55931;SDS011;41837;55.700;37.984;2023-07-08T02:47:04;15.27;;;10.85;;
55931;SDS011;41837;55.700;37.984;2023-07-08T02:49:31;16.67;;;11.98;;
55931;SDS011;41837;55.700;37.984;2023-07-08T02:51:57;12.73;;;10.27;;
55931;SDS011;41837;55.700;37.984;2023-07-08T02:54:23;13.25;;;11.23;;
55931;SDS011;41837;55.700;37.984;2023-07-08T02:56:50;14.25;;;10.82;;
55931;SDS011;41837;55.700;37.984;2023-07-08T02:59:16;14.68;;;10.93;;
55931;SDS011;41837;55.700;37.984;2023-07-08T03:01:42;14.98;;;11.25;;
55931;SDS011;41837;55.700;37.984;2023-07-08T03:04:09;15.75;;;11.60;;
55931;SDS011;41837;55.700;37.984;2023-07-08T03:06:40;14.70;;;11.80;;
55931;SDS011;41837;55.700;37.984;2023-07-08T03:09:07;16.33;;;12.05;;
55931;SDS011;41837;55.700;37.984;2023-07-08T03:11:35;15.38;;;11.13;;
55931;SDS011;41837;55.700;37.984;2023-07-08T03:14:02;23.58;;;12.85;;
55931;SDS011;41837;55.700;37.984;2023-07-08T03:16:28;14.90;;;12.20;;
55931;SDS011;41837;55.700;37.984;2023-07-08T03:18:54;18.30;;;12.52;;
55931;SDS011;41837;55.700;37.984;2023-07-08T03:21:20;15.45;;;12.43;;
55931;SDS011;41837;55.700;37.984;2023-07-08T03:23:50;18.77;;;12.93;;
55931;SDS011;41837;55.700;37.984;2023-07-08T03:26:23;19.45;;;13.10;;
55931;SDS011;41837;55.700;37.984;2023-07-08T03:28:52;16.95;;;13.52;;
55931;SDS011;41837;55.700;37.984;2023-07-08T03:31:20;18.33;;;13.48;;
55931;SDS011;41837;55.700;37.984;2023-07-08T03:33:46;19.83;;;13.90;;
55931;SDS011;41837;55.700;37.984;2023-07-08T03:36:13;18.52;;;14.40;;
55931;SDS011;41837;55.700;37.984;2023-07-08T03:38:54;20.00;;;14.70;;
55931;SDS011;41837;55.700;37.984;2023-07-08T03:41:22;19.05;;;13.90;;
55931;SDS011;41837;55.700;37.984;2023-07-08T03:43:49;22.38;;;15.00;;
55931;SDS011;41837;55.700;37.984;2023-07-08T03:46:20;18.48;;;14.13;;
55931;SDS011;41837;55.700;37.984;2023-07-08T03:48:47;20.98;;;15.15;;
55931;SDS011;41837;55.700;37.984;2023-07-08T03:51:21;21.08;;;14.13;;
55931;SDS011;41837;55.700;37.984;2023-07-08T03:53:58;18.98;;;14.27;;
55931;SDS011;41837;55.700;37.984;2023-07-08T03:56:25;22.42;;;15.68;;
55931;SDS011;41837;55.700;37.984;2023-07-08T03:58:51;21.60;;;14.95;;
55931;SDS011;41837;55.700;37.984;2023-07-08T04:01:18;24.33;;;14.23;;
55931;SDS011;41837;55.700;37.984;2023-07-08T04:03:46;18.85;;;13.52;;
55931;SDS011;41837;55.700;37.984;2023-07-08T04:06:13;15.90;;;12.52;;
55931;SDS011;41837;55.700;37.984;2023-07-08T04:08:41;24.67;;;13.38;;
55931;SDS011;41837;55.700;37.984;2023-07-08T04:11:11;21.10;;;13.02;;
55931;SDS011;41837;55.700;37.984;2023-07-08T04:13:39;22.02;;;12.98;;
55931;SDS011;41837;55.700;37.984;2023-07-08T04:16:07;16.92;;;12.48;;
55931;SDS011;41837;55.700;37.984;2023-07-08T04:18:39;16.63;;;11.40;;
55931;SDS011;41837;55.700;37.984;2023-07-08T04:21:05;16.30;;;12.07;;
55931;SDS011;41837;55.700;37.984;2023-07-08T04:23:32;15.23;;;11.63;;
55931;SDS011;41837;55.700;37.984;2023-07-08T04:25:58;19.75;;;11.38;;
55931;SDS011;41837;55.700;37.984;2023-07-08T04:28:25;15.85;;;11.73;;
55931;SDS011;41837;55.700;37.984;2023-07-08T04:30:52;13.52;;;11.10;;
55931;SDS011;41837;55.700;37.984;2023-07-08T04:33:18;16.00;;;11.95;;
55931;SDS011;41837;55.700;37.984;2023-07-08T04:35:44;19.20;;;12.02;;
55931;SDS011;41837;55.700;37.984;2023-07-08T04:38:18;18.33;;;12.25;;
55931;SDS011;41837;55.700;37.984;2023-07-08T04:40:50;15.68;;;11.40;;
55931;SDS011;41837;55.700;37.984;2023-07-08T04:43:18;17.83;;;11.57;;
55931;SDS011;41837;55.700;37.984;2023-07-08T04:45:46;14.90;;;11.70;;
55931;SDS011;41837;55.700;37.984;2023-07-08T04:48:17;15.23;;;11.82;;
55931;SDS011;41837;55.700;37.984;2023-07-08T04:50:45;15.27;;;11.30;;
55931;SDS011;41837;55.700;37.984;2023-07-08T04:53:13;16.40;;;11.25;;
55931;SDS011;41837;55.700;37.984;2023-07-08T04:55:45;15.52;;;11.25;;
55931;SDS011;41837;55.700;37.984;2023-07-08T04:58:14;15.50;;;12.05;;
55931;SDS011;41837;55.700;37.984;2023-07-08T05:00:40;18.25;;;12.30;;
55931;SDS011;41837;55.700;37.984;2023-07-08T05:03:06;17.50;;;11.07;;
55931;SDS011;41837;55.700;37.984;2023-07-08T05:05:33;14.73;;;11.50;;
55931;SDS011;41837;55.700;37.984;2023-07-08T05:08:00;17.75;;;11.70;;
55931;SDS011;41837;55.700;37.984;2023-07-08T05:10:27;15.05;;;12.18;;
55931;SDS011;41837;55.700;37.984;2023-07-08T05:12:53;17.00;;;12.23;;
55931;SDS011;41837;55.700;37.984;2023-07-08T05:15:19;15.48;;;11.95;;
55931;SDS011;41837;55.700;37.984;2023-07-08T05:17:46;14.60;;;11.23;;
55931;SDS011;41837;55.700;37.984;2023-07-08T05:20:13;17.90;;;12.02;;
55931;SDS011;41837;55.700;37.984;2023-07-08T05:22:40;15.20;;;11.45;;
55931;SDS011;41837;55.700;37.984;2023-07-08T05:25:09;13.25;;;10.57;;
55931;SDS011;41837;55.700;37.984;2023-07-08T05:27:36;17.75;;;11.00;;
55931;SDS011;41837;55.700;37.984;2023-07-08T05:30:03;17.88;;;11.38;;
55931;SDS011;41837;55.700;37.984;2023-07-08T05:32:34;14.90;;;10.77;;
55931;SDS011;41837;55.700;37.984;2023-07-08T05:35:00;13.75;;;10.00;;
55931;SDS011;41837;55.700;37.984;2023-07-08T05:37:30;11.55;;;9.50;;
55931;SDS011;41837;55.700;37.984;2023-07-08T05:39:56;12.27;;;9.57;;
55931;SDS011;41837;55.700;37.984;2023-07-08T05:42:26;15.57;;;10.43;;
55931;SDS011;41837;55.700;37.984;2023-07-08T05:44:52;14.60;;;10.57;;
55931;SDS011;41837;55.700;37.984;2023-07-08T05:47:20;17.88;;;10.73;;
55931;SDS011;41837;55.700;37.984;2023-07-08T05:49:47;13.57;;;10.10;;
55931;SDS011;41837;55.700;37.984;2023-07-08T05:52:13;12.88;;;9.93;;
55931;SDS011;41837;55.700;37.984;2023-07-08T05:54:40;13.43;;;10.40;;
55931;SDS011;41837;55.700;37.984;2023-07-08T05:57:09;11.85;;;9.77;;
55931;SDS011;41837;55.700;37.984;2023-07-08T05:59:37;13.65;;;9.43;;
55931;SDS011;41837;55.700;37.984;2023-07-08T06:02:09;14.23;;;8.93;;
55931;SDS011;41837;55.700;37.984;2023-07-08T06:04:37;12.88;;;8.88;;
55931;SDS011;41837;55.700;37.984;2023-07-08T06:07:04;12.98;;;9.05;;
55931;SDS011;41837;55.700;37.984;2023-07-08T06:09:30;12.02;;;8.63;;
55931;SDS011;41837;55.700;37.984;2023-07-08T06:11:57;10.90;;;8.48;;
55931;SDS011;41837;55.700;37.984;2023-07-08T06:14:24;12.95;;;9.43;;
55931;SDS011;41837;55.700;37.984;2023-07-08T06:16:50;10.98;;;9.23;;
55931;SDS011;41837;55.700;37.984;2023-07-08T06:19:17;11.30;;;8.88;;
55931;SDS011;41837;55.700;37.984;2023-07-08T06:21:43;12.10;;;9.48;;
55931;SDS011;41837;55.700;37.984;2023-07-08T06:24:10;13.82;;;9.27;;
55931;SDS011;41837;55.700;37.984;2023-07-08T06:26:36;13.90;;;9.57;;
55931;SDS011;41837;55.700;37.984;2023-07-08T06:29:03;12.07;;;9.65;;
55931;SDS011;41837;55.700;37.984;2023-07-08T06:31:29;12.63;;;8.63;;
55931;SDS011;41837;55.700;37.984;2023-07-08T06:33:56;11.07;;;8.38;;
55931;SDS011;41837;55.700;37.984;2023-07-08T06:36:22;14.80;;;8.95;;
55931;SDS011;41837;55.700;37.984;2023-07-08T06:38:48;13.02;;;8.93;;
55931;SDS011;41837;55.700;37.984;2023-07-08T06:41:15;12.45;;;8.63;;
55931;SDS011;41837;55.700;37.984;2023-07-08T06:43:41;10.70;;;8.88;;
55931;SDS011;41837;55.700;37.984;2023-07-08T06:46:16;13.68;;;8.93;;
55931;SDS011;41837;55.700;37.984;2023-07-08T06:48:44;12.63;;;8.65;;
55931;SDS011;41837;55.700;37.984;2023-07-08T06:51:10;12.35;;;8.70;;
55931;SDS011;41837;55.700;37.984;2023-07-08T06:53:37;10.93;;;8.57;;
55931;SDS011;41837;55.700;37.984;2023-07-08T06:56:03;12.48;;;8.82;;
55931;SDS011;41837;55.700;37.984;2023-07-08T06:58:30;14.45;;;8.65;;
55931;SDS011;41837;55.700;37.984;2023-07-08T07:00:57;15.60;;;8.77;;
55931;SDS011;41837;55.700;37.984;2023-07-08T07:03:23;10.55;;;8.27;;
55931;SDS011;41837;55.700;37.984;2023-07-08T07:05:50;13.57;;;8.70;;
55931;SDS011;41837;55.700;37.984;2023-07-08T07:08:16;9.82;;;8.82;;
55931;SDS011;41837;55.700;37.984;2023-07-08T07:10:43;10.05;;;8.65;;
55931;SDS011;41837;55.700;37.984;2023-07-08T07:13:09;10.02;;;7.78;;
55931;SDS011;41837;55.700;37.984;2023-07-08T07:15:36;10.55;;;8.10;;
55931;SDS011;41837;55.700;37.984;2023-07-08T07:18:02;12.77;;;8.65;;
55931;SDS011;41837;55.700;37.984;2023-07-08T07:20:28;11.00;;;8.70;;
55931;SDS011;41837;55.700;37.984;2023-07-08T07:22:56;11.80;;;7.97;;
55931;SDS011;41837;55.700;37.984;2023-07-08T07:25:22;14.13;;;8.32;;
55931;SDS011;41837;55.700;37.984;2023-07-08T07:27:49;10.60;;;8.20;;
55931;SDS011;41837;55.700;37.984;2023-07-08T07:30:15;13.30;;;7.40;;
55931;SDS011;41837;55.700;37.984;2023-07-08T07:32:42;12.93;;;8.07;;
55931;SDS011;41837;55.700;37.984;2023-07-08T07:35:09;12.20;;;8.30;;
55931;SDS011;41837;55.700;37.984;2023-07-08T07:37:39;10.20;;;8.52;;
55931;SDS011;41837;55.700;37.984;2023-07-08T07:40:06;10.57;;;8.10;;
55931;SDS011;41837;55.700;37.984;2023-07-08T07:42:39;12.20;;;8.57;;
55931;SDS011;41837;55.700;37.984;2023-07-08T07:45:06;14.38;;;7.90;;
55931;SDS011;41837;55.700;37.984;2023-07-08T07:47:34;15.63;;;8.10;;
55931;SDS011;41837;55.700;37.984;2023-07-08T07:50:02;11.80;;;8.60;;
55931;SDS011;41837;55.700;37.984;2023-07-08T07:52:30;11.85;;;8.27;;
55931;SDS011;41837;55.700;37.984;2023-07-08T07:54:57;10.25;;;7.60;;
55931;SDS011;41837;55.700;37.984;2023-07-08T07:57:25;14.35;;;8.40;;
55931;SDS011;41837;55.700;37.984;2023-07-08T07:59:51;11.60;;;8.27;;
55931;SDS011;41837;55.700;37.984;2023-07-08T08:02:18;11.65;;;8.15;;
55931;SDS011;41837;55.700;37.984;2023-07-08T08:04:45;11.77;;;7.90;;
55931;SDS011;41837;55.700;37.984;2023-07-08T08:07:12;15.48;;;8.38;;
55931;SDS011;41837;55.700;37.984;2023-07-08T08:09:39;11.88;;;8.98;;
55931;SDS011;41837;55.700;37.984;2023-07-08T08:12:07;11.77;;;7.90;;
55931;SDS011;41837;55.700;37.984;2023-07-08T08:14:36;12.45;;;9.05;;
55931;SDS011;41837;55.700;37.984;2023-07-08T08:17:03;12.68;;;9.90;;
55931;SDS011;41837;55.700;37.984;2023-07-08T08:19:30;13.80;;;8.73;;
55931;SDS011;41837;55.700;37.984;2023-07-08T08:21:58;14.07;;;8.90;;
55931;SDS011;41837;55.700;37.984;2023-07-08T08:24:25;10.85;;;7.93;;
55931;SDS011;41837;55.700;37.984;2023-07-08T08:26:51;10.98;;;8.20;;
55931;SDS011;41837;55.700;37.984;2023-07-08T08:29:21;9.25;;;7.63;;
55931;SDS011;41837;55.700;37.984;2023-07-08T08:31:48;10.85;;;8.43;;
55931;SDS011;41837;55.700;37.984;2023-07-08T08:34:16;10.50;;;7.95;;
55931;SDS011;41837;55.700;37.984;2023-07-08T08:36:43;10.93;;;8.25;;
55931;SDS011;41837;55.700;37.984;2023-07-08T08:39:10;11.18;;;8.32;;
55931;SDS011;41837;55.700;37.984;2023-07-08T08:41:38;14.00;;;8.60;;
55931;SDS011;41837;55.700;37.984;2023-07-08T08:44:10;13.63;;;8.85;;
55931;SDS011;41837;55.700;37.984;2023-07-08T08:50:18;12.95;;;8.07;;
55931;SDS011;41837;55.700;37.984;2023-07-08T08:52:51;14.43;;;7.65;;
55931;SDS011;41837;55.700;37.984;2023-07-08T08:55:21;14.90;;;8.73;;
55931;SDS011;41837;55.700;37.984;2023-07-08T08:58:06;13.77;;;9.10;;
55931;SDS011;41837;55.700;37.984;2023-07-08T09:00:59;10.88;;;8.30;;
55931;SDS011;41837;55.700;37.984;2023-07-08T09:06:36;13.75;;;8.57;;
55931;SDS011;41837;55.700;37.984;2023-07-08T09:12:00;10.15;;;8.07;;
55931;SDS011;41837;55.700;37.984;2023-07-08T09:14:33;12.63;;;8.23;;
55931;SDS011;41837;55.700;37.984;2023-07-08T09:17:22;12.30;;;8.40;;
55931;SDS011;41837;55.700;37.984;2023-07-08T09:20:20;12.43;;;8.63;;
55931;SDS011;41837;55.700;37.984;2023-07-08T09:25:58;17.30;;;8.45;;
55931;SDS011;41837;55.700;37.984;2023-07-08T09:28:40;10.20;;;7.95;;
55931;SDS011;41837;55.700;37.984;2023-07-08T09:34:14;14.48;;;8.48;;
55931;SDS011;41837;55.700;37.984;2023-07-08T09:36:45;12.15;;;7.93;;
55931;SDS011;41837;55.700;37.984;2023-07-08T09:39:18;12.50;;;8.07;;
55931;SDS011;41837;55.700;37.984;2023-07-08T09:41:48;10.73;;;8.63;;
55931;SDS011;41837;55.700;37.984;2023-07-08T09:46:50;11.80;;;8.65;;
55931;SDS011;41837;55.700;37.984;2023-07-08T09:49:24;16.45;;;9.13;;
55931;SDS011;41837;55.700;37.984;2023-07-08T09:54:30;13.32;;;8.88;;
55931;SDS011;41837;55.700;37.984;2023-07-08T09:59:31;14.13;;;7.38;;
55931;SDS011;41837;55.700;37.984;2023-07-08T10:02:14;10.30;;;7.35;;
55931;SDS011;41837;55.700;37.984;2023-07-08T10:04:45;11.30;;;7.97;;
55931;SDS011;41837;55.700;37.984;2023-07-08T10:07:15;20.00;;;7.85;;
55931;SDS011;41837;55.700;37.984;2023-07-08T10:09:43;9.80;;;7.10;;
55931;SDS011;41837;55.700;37.984;2023-07-08T10:12:13;9.63;;;6.95;;
55931;SDS011;41837;55.700;37.984;2023-07-08T10:14:44;9.95;;;7.50;;
55931;SDS011;41837;55.700;37.984;2023-07-08T10:17:16;10.90;;;7.17;;
55931;SDS011;41837;55.700;37.984;2023-07-08T10:19:46;9.23;;;6.35;;
55931;SDS011;41837;55.700;37.984;2023-07-08T10:24:48;8.57;;;6.97;;
55931;SDS011;41837;55.700;37.984;2023-07-08T10:30:25;8.98;;;6.40;;
55931;SDS011;41837;55.700;37.984;2023-07-08T10:33:13;13.20;;;6.78;;
55931;SDS011;41837;55.700;37.984;2023-07-08T10:36:18;11.05;;;7.22;;
55931;SDS011;41837;55.700;37.984;2023-07-08T10:39:04;10.07;;;6.85;;
55931;SDS011;41837;55.700;37.984;2023-07-08T10:47:52;8.15;;;6.55;;
55931;SDS011;41837;55.700;37.984;2023-07-08T10:50:30;10.05;;;6.47;;
55931;SDS011;41837;55.700;37.984;2023-07-08T10:53:37;11.77;;;6.70;;
55931;SDS011;41837;55.700;37.984;2023-07-08T11:09:56;11.63;;;6.40;;
55931;SDS011;41837;55.700;37.984;2023-07-08T11:12:35;9.52;;;5.70;;
55931;SDS011;41837;55.700;37.984;2023-07-08T11:15:20;7.00;;;5.70;;
55931;SDS011;41837;55.700;37.984;2023-07-08T11:21:07;11.23;;;5.95;;
55931;SDS011;41837;55.700;37.984;2023-07-08T11:26:50;12.15;;;6.68;;
55931;SDS011;41837;55.700;37.984;2023-07-08T11:29:25;9.38;;;5.78;;
55931;SDS011;41837;55.700;37.984;2023-07-08T11:32:16;7.60;;;5.20;;
55931;SDS011;41837;55.700;37.984;2023-07-08T11:34:49;8.18;;;5.75;;
55931;SDS011;41837;55.700;37.984;2023-07-08T11:37:21;9.65;;;5.95;;
55931;SDS011;41837;55.700;37.984;2023-07-08T11:39:57;8.82;;;5.45;;
55931;SDS011;41837;55.700;37.984;2023-07-08T11:45:02;8.02;;;4.88;;
55931;SDS011;41837;55.700;37.984;2023-07-08T11:47:39;5.80;;;4.43;;
55931;SDS011;41837;55.700;37.984;2023-07-08T11:50:23;6.47;;;4.35;;
55931;SDS011;41837;55.700;37.984;2023-07-08T11:53:11;8.52;;;4.78;;
55931;SDS011;41837;55.700;37.984;2023-07-08T11:55:59;7.18;;;4.43;;
55931;SDS011;41837;55.700;37.984;2023-07-08T12:01:26;7.10;;;4.57;;
55931;SDS011;41837;55.700;37.984;2023-07-08T12:04:20;5.45;;;3.67;;
55931;SDS011;41837;55.700;37.984;2023-07-08T12:07:12;6.22;;;3.55;;
55931;SDS011;41837;55.700;37.984;2023-07-08T12:09:48;6.63;;;3.60;;
55931;SDS011;41837;55.700;37.984;2023-07-08T12:12:35;4.82;;;3.38;;
55931;SDS011;41837;55.700;37.984;2023-07-08T12:15:21;4.78;;;3.75;;
55931;SDS011;41837;55.700;37.984;2023-07-08T12:17:49;7.45;;;3.42;;
55931;SDS011;41837;55.700;37.984;2023-07-08T12:20:23;6.90;;;3.03;;
55931;SDS011;41837;55.700;37.984;2023-07-08T12:22:56;5.82;;;3.55;;
55931;SDS011;41837;55.700;37.984;2023-07-08T12:25:25;6.25;;;2.83;;
55931;SDS011;41837;55.700;37.984;2023-07-08T12:27:59;4.88;;;3.20;;
55931;SDS011;41837;55.700;37.984;2023-07-08T12:30:27;4.38;;;2.95;;
55931;SDS011;41837;55.700;37.984;2023-07-08T12:32:56;5.20;;;2.92;;
55931;SDS011;41837;55.700;37.984;2023-07-08T12:35:32;4.20;;;2.65;;
55931;SDS011;41837;55.700;37.984;2023-07-08T12:38:03;3.95;;;3.13;;
55931;SDS011;41837;55.700;37.984;2023-07-08T12:40:40;6.15;;;2.80;;
55931;SDS011;41837;55.700;37.984;2023-07-08T12:43:09;12.20;;;3.60;;
55931;SDS011;41837;55.700;37.984;2023-07-08T12:45:40;4.80;;;3.30;;
55931;SDS011;41837;55.700;37.984;2023-07-08T12:48:09;5.20;;;3.20;;
55931;SDS011;41837;55.700;37.984;2023-07-08T12:50:37;4.80;;;2.70;;
55931;SDS011;41837;55.700;37.984;2023-07-08T12:53:06;3.45;;;2.70;;
55931;SDS011;41837;55.700;37.984;2023-07-08T12:55:38;2.95;;;2.20;;
55931;SDS011;41837;55.700;37.984;2023-07-08T12:58:10;4.85;;;2.72;;
55931;SDS011;41837;55.700;37.984;2023-07-08T13:00:52;3.40;;;2.67;;
55931;SDS011;41837;55.700;37.984;2023-07-08T13:03:24;4.60;;;2.58;;
55931;SDS011;41837;55.700;37.984;2023-07-08T13:05:54;4.10;;;2.78;;
55931;SDS011;41837;55.700;37.984;2023-07-08T13:08:23;4.15;;;2.90;;
55931;SDS011;41837;55.700;37.984;2023-07-08T13:10:58;9.23;;;3.30;;
55931;SDS011;41837;55.700;37.984;2023-07-08T13:13:47;4.93;;;2.67;;
55931;SDS011;41837;55.700;37.984;2023-07-08T13:16:15;7.63;;;3.20;;
55931;SDS011;41837;55.700;37.984;2023-07-08T13:18:44;4.43;;;2.35;;
55931;SDS011;41837;55.700;37.984;2023-07-08T13:21:13;5.28;;;2.85;;
55931;SDS011;41837;55.700;37.984;2023-07-08T13:23:43;6.20;;;3.05;;
55931;SDS011;41837;55.700;37.984;2023-07-08T13:26:17;5.47;;;3.70;;
55931;SDS011;41837;55.700;37.984;2023-07-08T13:28:48;7.53;;;3.88;;
55931;SDS011;41837;55.700;37.984;2023-07-08T13:31:17;8.73;;;4.05;;
55931;SDS011;41837;55.700;37.984;2023-07-08T13:33:51;5.65;;;2.72;;
55931;SDS011;41837;55.700;37.984;2023-07-08T13:36:21;6.45;;;3.35;;
55931;SDS011;41837;55.700;37.984;2023-07-08T13:38:53;10.60;;;3.28;;
55931;SDS011;41837;55.700;37.984;2023-07-08T13:41:21;5.45;;;3.78;;
55931;SDS011;41837;55.700;37.984;2023-07-08T13:43:50;6.50;;;3.25;;
55931;SDS011;41837;55.700;37.984;2023-07-08T13:47:21;5.32;;;3.15;;
55931;SDS011;41837;55.700;37.984;2023-07-08T13:49:39;3.22;;;2.80;;
55931;SDS011;41837;55.700;37.984;2023-07-08T13:52:19;6.00;;;3.60;;
55931;SDS011;41837;55.700;37.984;2023-07-08T13:54:54;6.32;;;3.90;;
55931;SDS011;41837;55.700;37.984;2023-07-08T13:57:33;5.45;;;3.80;;
55931;SDS011;41837;55.700;37.984;2023-07-08T14:00:05;7.50;;;3.38;;
55931;SDS011;41837;55.700;37.984;2023-07-08T14:02:43;5.97;;;3.42;;
55931;SDS011;41837;55.700;37.984;2023-07-08T14:05:12;4.90;;;3.10;;
55931;SDS011;41837;55.700;37.984;2023-07-08T14:07:42;4.32;;;3.38;;
55931;SDS011;41837;55.700;37.984;2023-07-08T14:10:10;4.13;;;3.10;;
55931;SDS011;41837;55.700;37.984;2023-07-08T14:12:38;4.85;;;3.42;;
55931;SDS011;41837;55.700;37.984;2023-07-08T14:15:08;7.45;;;3.45;;
55931;SDS011;41837;55.700;37.984;2023-07-08T14:17:37;5.25;;;3.17;;
55931;SDS011;41837;55.700;37.984;2023-07-08T14:20:13;9.10;;;3.38;;
55931;SDS011;41837;55.700;37.984;2023-07-08T14:22:43;5.95;;;3.38;;
55931;SDS011;41837;55.700;37.984;2023-07-08T14:25:10;4.53;;;3.50;;
55931;SDS011;41837;55.700;37.984;2023-07-08T14:27:44;7.57;;;2.95;;
55931;SDS011;41837;55.700;37.984;2023-07-08T14:30:13;7.60;;;3.38;;
55931;SDS011;41837;55.700;37.984;2023-07-08T14:32:41;5.18;;;3.17;;
55931;SDS011;41837;55.700;37.984;2023-07-08T14:35:16;6.25;;;2.95;;
55931;SDS011;41837;55.700;37.984;2023-07-08T14:40:32;8.10;;;3.70;;
55931;SDS011;41837;55.700;37.984;2023-07-08T14:43:14;4.72;;;3.10;;
55931;SDS011;41837;55.700;37.984;2023-07-08T14:45:49;7.25;;;3.60;;
55931;SDS011;41837;55.700;37.984;2023-07-08T14:48:19;4.90;;;3.42;;
55931;SDS011;41837;55.700;37.984;2023-07-08T14:53:22;6.50;;;3.60;;
55931;SDS011;41837;55.700;37.984;2023-07-08T14:55:50;6.38;;;3.72;;
55931;SDS011;41837;55.700;37.984;2023-07-08T15:00:57;5.78;;;3.60;;
55931;SDS011;41837;55.700;37.984;2023-07-08T15:03:32;5.13;;;3.22;;
55931;SDS011;41837;55.700;37.984;2023-07-08T15:05:59;7.97;;;3.10;;
55931;SDS011;41837;55.700;37.984;2023-07-08T15:08:28;8.68;;;3.63;;
55931;SDS011;41837;55.700;37.984;2023-07-08T15:10:56;9.13;;;3.88;;
55931;SDS011;41837;55.700;37.984;2023-07-08T15:13:25;5.93;;;3.55;;
55931;SDS011;41837;55.700;37.984;2023-07-08T15:15:56;5.07;;;3.15;;
55931;SDS011;41837;55.700;37.984;2023-07-08T15:18:25;5.78;;;3.38;;
55931;SDS011;41837;55.700;37.984;2023-07-08T15:20:51;5.20;;;3.15;;
55931;SDS011;41837;55.700;37.984;2023-07-08T15:23:20;5.97;;;2.70;;
55931;SDS011;41837;55.700;37.984;2023-07-08T15:25:48;5.78;;;2.58;;
55931;SDS011;41837;55.700;37.984;2023-07-08T15:28:20;3.88;;;2.75;;
55931;SDS011;41837;55.700;37.984;2023-07-08T15:31:15;5.22;;;2.40;;
55931;SDS011;41837;55.700;37.984;2023-07-08T15:33:44;4.95;;;2.47;;
55931;SDS011;41837;55.700;37.984;2023-07-08T15:36:12;6.32;;;2.83;;
55931;SDS011;41837;55.700;37.984;2023-07-08T15:38:39;6.78;;;3.22;;
55931;SDS011;41837;55.700;37.984;2023-07-08T15:41:19;3.95;;;2.55;;
55931;SDS011;41837;55.700;37.984;2023-07-08T15:43:54;4.87;;;2.33;;
55931;SDS011;41837;55.700;37.984;2023-07-08T15:46:26;4.43;;;2.65;;
55931;SDS011;41837;55.700;37.984;2023-07-08T15:49:13;5.30;;;2.60;;
55931;SDS011;41837;55.700;37.984;2023-07-08T15:51:57;5.32;;;2.33;;
55931;SDS011;41837;55.700;37.984;2023-07-08T15:54:26;4.35;;;2.50;;
55931;SDS011;41837;55.700;37.984;2023-07-08T15:56:53;6.53;;;2.85;;
55931;SDS011;41837;55.700;37.984;2023-07-08T15:59:24;6.95;;;2.50;;